createdAt,value
2023-04-19T00:01:59.855Z,5.60
2023-04-19T00:04:34.031Z,7.20
2023-04-19T00:07:06.664Z,6.00
2023-04-19T00:09:39.158Z,5.20
2023-04-19T00:12:11.364Z,14.30
2023-04-19T00:14:43.688Z,6.00
2023-04-19T00:17:16.057Z,7.30
2023-04-19T00:19:48.501Z,5.20
2023-04-19T00:22:20.837Z,6.70
2023-04-19T00:24:53.205Z,5.50
2023-04-19T00:27:25.462Z,6.10
2023-04-19T00:29:57.958Z,8.10
2023-04-19T00:32:30.334Z,6.80
2023-04-19T00:35:02.602Z,5.90
2023-04-19T00:37:34.914Z,7.50
2023-04-19T00:40:09.338Z,12.50
2023-04-19T00:42:41.589Z,9.90
2023-04-19T00:45:14.553Z,13.10
2023-04-19T00:47:47.173Z,9.60
2023-04-19T00:50:19.872Z,6.80
2023-04-19T00:52:53.109Z,6.40
2023-04-19T00:55:25.934Z,7.60
2023-04-19T00:57:58.685Z,9.80
2023-04-19T01:00:31.256Z,5.20
2023-04-19T01:03:03.957Z,13.50
2023-04-19T01:05:36.764Z,6.50
2023-04-19T01:08:09.510Z,9.00
2023-04-19T01:10:41.893Z,6.50
2023-04-19T01:13:14.117Z,4.70
2023-04-19T01:15:46.964Z,5.10
2023-04-19T01:18:19.481Z,6.70
2023-04-19T01:20:51.886Z,5.50
2023-04-19T01:23:24.250Z,6.60
2023-04-19T01:25:56.556Z,8.40
2023-04-19T01:28:28.984Z,4.70
2023-04-19T01:31:01.319Z,5.30
2023-04-19T01:33:33.671Z,4.40
2023-04-19T01:36:06.465Z,4.90
2023-04-19T01:38:38.746Z,7.00
2023-04-19T01:41:11.125Z,17.90
2023-04-19T01:43:43.557Z,8.30
2023-04-19T01:46:15.922Z,7.80
2023-04-19T01:48:48.318Z,8.20
2023-04-19T01:51:21.976Z,7.00
2023-04-19T01:53:54.890Z,9.20
2023-04-19T01:56:27.433Z,8.10
2023-04-19T01:59:00.045Z,7.50
2023-04-19T02:01:32.576Z,6.50
2023-04-19T02:04:05.127Z,6.50
2023-04-19T02:06:37.633Z,8.20
2023-04-19T02:09:10.083Z,8.50
2023-04-19T02:11:42.371Z,6.10
2023-04-19T02:14:14.971Z,5.90
2023-04-19T02:16:47.777Z,10.70
2023-04-19T02:19:21.759Z,8.70
2023-04-19T02:21:57.832Z,6.20
2023-04-19T02:24:30.090Z,9.20
2023-04-19T02:27:02.482Z,6.00
2023-04-19T02:29:35.268Z,8.50
2023-04-19T02:32:07.991Z,5.30
2023-04-19T02:34:40.420Z,16.70
2023-04-19T02:37:12.859Z,6.80
2023-04-19T02:39:46.061Z,9.50
2023-04-19T02:42:18.354Z,5.00
2023-04-19T02:44:50.533Z,5.60
2023-04-19T02:47:23.075Z,7.70
2023-04-19T02:49:55.654Z,10.70
2023-04-19T02:52:29.196Z,8.60
2023-04-19T02:55:01.605Z,9.00
2023-04-19T02:57:33.978Z,6.70
2023-04-19T03:00:08.966Z,6.30
2023-04-19T03:02:41.446Z,10.00
2023-04-19T03:05:14.646Z,5.40
2023-04-19T03:07:46.930Z,4.90
2023-04-19T03:10:19.362Z,9.30
2023-04-19T03:12:51.867Z,5.00
2023-04-19T03:15:24.228Z,6.40
2023-04-19T03:17:56.582Z,11.40
2023-04-19T03:20:28.936Z,5.80
2023-04-19T03:23:01.294Z,7.30
2023-04-19T03:25:33.961Z,5.00
2023-04-19T03:28:06.555Z,6.10
2023-04-19T03:30:38.866Z,6.30
2023-04-19T03:33:11.287Z,6.10
2023-04-19T03:35:44.826Z,4.40
2023-04-19T03:38:17.143Z,8.70
2023-04-19T03:40:49.556Z,4.70
2023-04-19T03:43:22.304Z,6.60
2023-04-19T03:45:54.684Z,6.30
2023-04-19T03:48:28.164Z,7.20
2023-04-19T03:51:00.511Z,5.70
2023-04-19T03:53:32.823Z,8.90
2023-04-19T03:56:05.496Z,8.30
2023-04-19T03:58:39.703Z,6.30
2023-04-19T04:01:20.851Z,3.60
2023-04-19T04:03:53.673Z,9.50
2023-04-19T04:06:26.967Z,5.20
2023-04-19T04:08:59.348Z,4.40
2023-04-19T04:11:31.651Z,6.00
2023-04-19T04:14:03.987Z,6.30
2023-04-19T04:16:36.358Z,5.10
2023-04-19T04:19:08.759Z,6.80
2023-04-19T04:21:41.065Z,5.10
2023-04-19T04:24:13.542Z,4.60
2023-04-19T04:26:46.040Z,5.80
2023-04-19T04:29:18.517Z,5.90
2023-04-19T04:31:51.047Z,5.70
2023-04-19T04:34:23.392Z,5.20
2023-04-19T04:36:55.950Z,5.70
2023-04-19T04:39:28.312Z,6.60
2023-04-19T04:42:00.715Z,13.10
2023-04-19T04:44:34.299Z,5.00
2023-04-19T04:47:07.324Z,5.30
2023-04-19T04:49:39.672Z,9.50
2023-04-19T04:52:11.988Z,6.50
2023-04-19T04:54:44.331Z,4.50
2023-04-19T04:57:16.801Z,7.70
2023-04-19T04:59:49.267Z,13.00
2023-04-19T05:02:22.730Z,9.90
2023-04-19T05:04:55.235Z,12.60
2023-04-19T05:07:27.679Z,7.00
2023-04-19T05:09:59.917Z,7.20
2023-04-19T05:12:32.407Z,17.80
2023-04-19T05:15:04.968Z,11.20
2023-04-19T05:17:37.728Z,18.10
2023-04-19T05:20:12.273Z,11.80
2023-04-19T05:22:44.589Z,11.40
2023-04-19T05:25:17.047Z,18.50
2023-04-19T05:27:49.488Z,16.70
2023-04-19T05:30:22.260Z,12.90
2023-04-19T05:32:54.792Z,12.00
2023-04-19T05:35:27.241Z,14.70
2023-04-19T05:37:59.739Z,13.70
2023-04-19T05:40:32.319Z,13.70
2023-04-19T05:43:04.616Z,8.70
2023-04-19T05:45:37.077Z,8.50
2023-04-19T05:48:09.904Z,14.30
2023-04-19T05:50:42.652Z,15.10
2023-04-19T05:53:15.124Z,14.40
2023-04-19T05:55:48.244Z,15.60
2023-04-19T05:58:23.827Z,15.10
2023-04-19T06:00:58.571Z,9.10
2023-04-19T06:03:32.377Z,16.60
2023-04-19T06:06:05.099Z,9.50
2023-04-19T06:08:37.506Z,11.10
2023-04-19T06:11:23.272Z,9.40
2023-04-19T06:14:01.552Z,13.40
2023-04-19T06:16:34.134Z,15.60
2023-04-19T06:19:06.495Z,12.30
2023-04-19T06:21:38.897Z,18.10
2023-04-19T06:24:11.742Z,15.10
2023-04-19T06:26:44.528Z,10.30
2023-04-19T06:29:16.937Z,10.00
2023-04-19T06:31:52.161Z,17.70
2023-04-19T06:34:24.616Z,12.40
2023-04-19T06:36:57.088Z,11.60
2023-04-19T06:39:29.698Z,9.20
2023-04-19T06:42:02.491Z,8.70
2023-04-19T06:44:34.968Z,11.40
2023-04-19T06:47:07.824Z,9.40
2023-04-19T06:49:40.474Z,12.90
2023-04-19T06:52:13.011Z,9.50
2023-04-19T06:54:48.736Z,10.90
2023-04-19T06:57:21.335Z,14.80
2023-04-19T06:59:55.404Z,20.80
2023-04-19T07:02:27.972Z,9.80
2023-04-19T07:05:01.024Z,11.10
2023-04-19T07:07:33.547Z,23.60
2023-04-19T07:10:06.184Z,15.20
2023-04-19T07:12:38.616Z,11.60
2023-04-19T07:15:13.269Z,8.70
2023-04-19T07:17:49.082Z,14.30
2023-04-19T07:20:22.105Z,8.10
2023-04-19T07:22:54.459Z,13.10
2023-04-19T07:25:27.502Z,21.50
2023-04-19T07:27:59.940Z,8.80
2023-04-19T07:30:32.275Z,8.10
2023-04-19T07:33:08.703Z,9.70
2023-04-19T07:35:42.985Z,8.00
2023-04-19T07:38:15.339Z,9.50
2023-04-19T07:40:47.700Z,12.30
2023-04-19T07:43:20.176Z,10.70
2023-04-19T07:45:52.441Z,12.40
2023-04-19T07:48:24.804Z,8.80
2023-04-19T07:50:57.170Z,14.70
2023-04-19T07:53:29.758Z,12.10
2023-04-19T07:56:02.204Z,22.70
2023-04-19T07:58:34.869Z,18.70
2023-04-19T08:01:08.029Z,13.70
2023-04-19T08:03:41.700Z,8.60
2023-04-19T08:06:14.455Z,18.70
2023-04-19T08:08:48.153Z,8.40
2023-04-19T08:11:22.344Z,14.40
2023-04-19T08:14:06.906Z,8.30
2023-04-19T08:19:22.433Z,8.80
2023-04-19T08:21:54.903Z,14.40
2023-04-19T08:24:27.432Z,11.40
2023-04-19T08:27:00.266Z,12.40
2023-04-19T08:29:33.708Z,12.20
2023-04-19T08:32:06.439Z,14.40
2023-04-19T08:34:40.115Z,12.90
2023-04-19T08:37:12.794Z,13.30
2023-04-19T08:39:45.130Z,22.40
2023-04-19T08:42:28.853Z,14.10
2023-04-19T08:45:27.006Z,12.00
2023-04-19T08:48:03.206Z,9.30
2023-04-19T08:50:45.600Z,12.40
2023-04-19T08:53:31.807Z,19.00
2023-04-19T08:56:17.547Z,11.40
2023-04-19T08:59:07.497Z,10.20
2023-04-19T09:01:45.763Z,14.00
2023-04-19T09:04:35.456Z,8.00
2023-04-19T09:07:08.494Z,9.30
2023-04-19T09:09:52.025Z,16.60
2023-04-19T09:12:35.254Z,11.90
2023-04-19T09:15:10.664Z,13.30
2023-04-19T09:17:43.399Z,12.60
2023-04-19T09:20:15.757Z,8.60
2023-04-19T09:23:06.632Z,9.50
2023-04-19T09:25:58.853Z,13.00
2023-04-19T09:28:32.481Z,16.20
2023-04-19T09:31:33.353Z,6.60
2023-04-19T09:34:28.817Z,11.60
2023-04-19T09:37:17.767Z,8.80
2023-04-19T09:40:25.005Z,15.00
2023-04-19T09:43:08.836Z,12.80
2023-04-19T09:45:49.696Z,10.30
2023-04-19T09:48:24.302Z,9.80
2023-04-19T09:51:03.165Z,6.20
2023-04-19T09:53:37.268Z,5.90
2023-04-19T09:56:13.010Z,7.40
2023-04-19T09:58:51.131Z,13.00
2023-04-19T10:01:29.733Z,16.20
2023-04-19T10:04:14.956Z,9.00
2023-04-19T10:07:25.286Z,17.10
2023-04-19T10:09:59.912Z,6.00
2023-04-19T10:13:04.070Z,18.70
2023-04-19T10:15:47.153Z,19.50
2023-04-19T10:18:23.702Z,10.30
2023-04-19T10:21:02.096Z,8.90
2023-04-19T10:23:35.095Z,9.60
2023-04-19T10:26:07.520Z,10.30
2023-04-19T10:28:40.190Z,8.40
2023-04-19T10:31:14.852Z,9.50
2023-04-19T10:33:49.175Z,7.50
2023-04-19T10:36:22.353Z,9.10
2023-04-19T10:38:55.929Z,10.90
2023-04-19T10:41:59.594Z,5.70
2023-04-19T10:44:32.101Z,10.70
2023-04-19T10:47:06.721Z,12.80
2023-04-19T10:49:47.992Z,10.00
2023-04-19T10:52:31.411Z,13.30
2023-04-19T10:55:07.627Z,10.40
2023-04-19T10:58:06.747Z,10.80
2023-04-19T11:00:39.417Z,10.20
2023-04-19T11:03:45.064Z,6.50
2023-04-19T11:06:27.139Z,9.20
2023-04-19T11:09:00.827Z,14.10
2023-04-19T11:11:36.848Z,9.60
2023-04-19T11:14:11.278Z,7.10
2023-04-19T11:16:46.134Z,8.80
2023-04-19T11:19:20.219Z,18.80
2023-04-19T11:21:52.704Z,7.90
2023-04-19T11:24:24.993Z,8.10
2023-04-19T11:26:59.165Z,11.20
2023-04-19T11:29:31.478Z,5.10
2023-04-19T11:32:05.658Z,8.00
2023-04-19T11:34:40.538Z,13.10
2023-04-19T11:37:13.530Z,10.50
2023-04-19T11:39:51.797Z,16.30
2023-04-19T11:42:24.267Z,7.20
2023-04-19T11:44:59.263Z,6.20
2023-04-19T11:47:32.158Z,8.30
2023-04-19T11:50:33.417Z,7.00
2023-04-19T11:53:15.642Z,6.80
2023-04-19T11:55:51.315Z,12.10
2023-04-19T12:01:07.876Z,20.30
2023-04-19T12:03:46.531Z,7.30
2023-04-19T12:06:23.602Z,10.20
2023-04-19T12:08:57.320Z,11.70
2023-04-19T12:11:45.955Z,9.40
2023-04-19T12:14:21.662Z,16.80
2023-04-19T12:19:48.696Z,8.30
2023-04-19T12:22:23.836Z,5.10
2023-04-19T12:24:56.656Z,9.20
2023-04-19T12:27:29.124Z,14.60
2023-04-19T12:30:01.680Z,4.60
2023-04-19T12:32:34.116Z,6.90
2023-04-19T12:35:07.395Z,6.40
2023-04-19T12:37:39.772Z,17.10
2023-04-19T12:40:14.609Z,8.60
2023-04-19T12:42:47.140Z,3.80
2023-04-19T12:45:22.576Z,10.00
2023-04-19T12:47:56.298Z,7.20
2023-04-19T12:50:28.719Z,19.10
2023-04-19T12:53:01.083Z,4.40
2023-04-19T12:55:33.499Z,10.30
2023-04-19T12:58:05.855Z,4.50
2023-04-19T13:00:38.208Z,12.70
2023-04-19T13:03:13.146Z,4.90
2023-04-19T13:05:45.752Z,7.10
2023-04-19T13:08:28.206Z,5.70
2023-04-19T13:11:09.881Z,13.40
2023-04-19T13:13:42.126Z,10.80
2023-04-19T13:16:14.666Z,9.60
2023-04-19T13:18:47.025Z,12.70
2023-04-19T13:21:19.495Z,7.90
2023-04-19T13:23:52.665Z,10.80
2023-04-19T13:26:25.086Z,5.60
2023-04-19T13:28:57.606Z,4.00
2023-04-19T13:31:30.757Z,7.70
2023-04-19T13:34:03.020Z,6.80
2023-04-19T13:36:35.376Z,9.80
2023-04-19T13:39:08.480Z,7.60
2023-04-19T13:41:41.428Z,12.20
2023-04-19T13:44:13.930Z,9.60
2023-04-19T13:46:46.589Z,11.50
2023-04-19T13:49:19.392Z,17.80
2023-04-19T13:51:51.881Z,13.00
2023-04-19T13:54:24.303Z,13.90
2023-04-19T13:56:56.800Z,10.10
2023-04-19T13:59:30.424Z,19.20
2023-04-19T14:02:04.195Z,12.90
2023-04-19T14:04:36.529Z,15.80
2023-04-19T14:07:08.903Z,10.20
2023-04-19T14:09:42.575Z,13.90
2023-04-19T14:12:14.885Z,10.50
2023-04-19T14:14:47.334Z,12.50
2023-04-19T14:17:19.662Z,14.00
2023-04-19T14:19:52.182Z,14.20
2023-04-19T14:22:24.595Z,10.10
2023-04-19T14:24:56.969Z,26.70
2023-04-19T14:27:29.677Z,16.40
2023-04-19T14:30:01.976Z,19.20
2023-04-19T14:32:34.648Z,10.30
2023-04-19T14:35:11.252Z,13.10
2023-04-19T14:37:43.580Z,12.80
2023-04-19T14:40:16.416Z,13.40
2023-04-19T14:42:48.768Z,18.70
2023-04-19T14:45:21.724Z,14.80
2023-04-19T14:47:54.115Z,16.00
2023-04-19T14:50:26.492Z,15.00
2023-04-19T14:52:58.935Z,15.80
2023-04-19T14:55:31.306Z,12.40
2023-04-19T14:58:03.619Z,10.60
2023-04-19T15:00:36.172Z,16.50
2023-04-19T15:03:08.854Z,10.20
2023-04-19T15:05:41.509Z,10.80
2023-04-19T15:08:29.105Z,12.50
2023-04-19T15:11:03.723Z,16.80
2023-04-19T15:13:36.675Z,15.00
2023-04-19T15:16:10.119Z,11.10
2023-04-19T15:18:42.534Z,9.90
2023-04-19T15:21:14.831Z,10.00
2023-04-19T15:23:47.445Z,13.40
2023-04-19T15:26:20.346Z,21.50
2023-04-19T15:28:53.155Z,10.90
2023-04-19T15:31:26.248Z,9.10
2023-04-19T15:33:59.077Z,8.90
2023-04-19T15:36:32.313Z,9.20
2023-04-19T15:39:04.750Z,10.10
2023-04-19T15:41:37.018Z,10.00
2023-04-19T15:44:09.277Z,11.20
2023-04-19T15:46:41.848Z,7.50
2023-04-19T15:49:14.397Z,8.40
2023-04-19T15:51:46.893Z,10.40
2023-04-19T15:54:21.685Z,10.50
2023-04-19T15:56:54.803Z,9.20
2023-04-19T15:59:27.208Z,8.80
2023-04-19T16:01:59.669Z,9.40
2023-04-19T16:04:32.394Z,9.10
2023-04-19T16:07:05.440Z,7.20
2023-04-19T16:09:37.901Z,8.90
2023-04-19T16:12:10.396Z,11.30
2023-04-19T16:14:42.611Z,6.20
2023-04-19T16:17:14.937Z,8.80
2023-04-19T16:19:47.283Z,6.50
2023-04-19T16:22:19.741Z,8.50
2023-04-19T16:24:52.291Z,7.00
2023-04-19T16:27:24.558Z,8.70
2023-04-19T16:29:56.986Z,7.70
2023-04-19T16:32:29.594Z,15.70
2023-04-19T16:35:02.197Z,8.50
2023-04-19T16:37:34.724Z,9.30
2023-04-19T16:40:10.377Z,9.00
2023-04-19T16:42:43.109Z,13.60
2023-04-19T16:45:16.341Z,11.30
2023-04-19T16:47:48.793Z,12.00
2023-04-19T16:50:21.698Z,11.40
2023-04-19T16:52:54.057Z,9.70
2023-04-19T16:55:26.445Z,18.00
2023-04-19T16:57:58.721Z,11.50
2023-04-19T17:00:31.013Z,18.90
2023-04-19T17:03:03.426Z,10.20
2023-04-19T17:05:36.156Z,13.80
2023-04-19T17:08:10.217Z,9.20
2023-04-19T17:10:42.569Z,10.40
2023-04-19T17:13:14.925Z,14.00
2023-04-19T17:15:47.778Z,9.80
2023-04-19T17:18:20.186Z,8.90
2023-04-19T17:20:52.596Z,11.50
2023-04-19T17:23:25.317Z,17.40
2023-04-19T17:25:57.546Z,9.90
2023-04-19T17:28:29.866Z,11.90
2023-04-19T17:31:02.205Z,9.70
2023-04-19T17:33:34.658Z,10.50
2023-04-19T17:36:08.247Z,12.00
2023-04-19T17:38:40.479Z,10.80
2023-04-19T17:41:16.477Z,15.50
2023-04-19T17:43:49.323Z,10.50
2023-04-19T17:46:22.547Z,8.90
2023-04-19T17:48:55.775Z,11.20
2023-04-19T17:51:28.214Z,10.80
2023-04-19T17:54:00.639Z,9.60
2023-04-19T17:56:33.379Z,8.00
2023-04-19T17:59:05.722Z,9.40
2023-04-19T18:01:38.284Z,10.30
2023-04-19T18:04:14.234Z,12.00
2023-04-19T18:06:46.990Z,12.10
2023-04-19T18:09:19.797Z,14.00
2023-04-19T18:11:52.256Z,13.80
2023-04-19T18:14:24.622Z,15.10
2023-04-19T18:16:57.007Z,14.90
2023-04-19T18:19:29.433Z,14.20
2023-04-19T18:22:02.475Z,17.70
2023-04-19T18:24:35.616Z,18.30
2023-04-19T18:27:07.901Z,20.90
2023-04-19T18:29:40.319Z,17.00
2023-04-19T18:32:12.891Z,19.60
2023-04-19T18:34:45.464Z,16.60
2023-04-19T18:37:18.804Z,18.00
2023-04-19T18:39:51.148Z,18.50
2023-04-19T18:42:24.577Z,17.50
2023-04-19T18:44:56.959Z,18.00
2023-04-19T18:47:29.949Z,20.10
2023-04-19T18:50:05.085Z,19.90
2023-04-19T18:52:38.816Z,20.40
2023-04-19T18:55:13.877Z,19.20
2023-04-19T18:57:46.116Z,19.30
2023-04-19T19:00:21.338Z,19.00
2023-04-19T19:02:53.889Z,18.20
2023-04-19T19:05:26.765Z,20.80
2023-04-19T19:07:59.460Z,21.60
2023-04-19T19:11:00.316Z,22.70
2023-04-19T19:13:24.156Z,25.30
2023-04-19T19:15:56.525Z,18.60
2023-04-19T19:18:29.584Z,20.40
2023-04-19T19:21:03.314Z,17.40
2023-04-19T19:23:41.839Z,20.40
2023-04-19T19:26:15.770Z,27.00
2023-04-19T19:28:48.177Z,27.50
2023-04-19T19:31:20.561Z,26.90
2023-04-19T19:34:10.221Z,32.70
2023-04-19T19:36:46.093Z,31.10
2023-04-19T19:39:18.675Z,25.50
2023-04-19T19:42:05.354Z,25.40
2023-04-19T19:44:39.068Z,23.80
2023-04-19T19:47:11.459Z,21.70
2023-04-19T19:50:08.848Z,20.70
2023-04-19T19:52:36.479Z,20.70
2023-04-19T19:55:12.510Z,18.10
2023-04-19T20:02:56.906Z,21.60
2023-04-19T20:05:30.018Z,20.90
2023-04-19T20:08:12.003Z,19.80
2023-04-19T20:10:45.291Z,22.50
2023-04-19T20:13:17.633Z,24.20
2023-04-19T20:15:50.016Z,27.20
2023-04-19T20:18:22.397Z,21.90
2023-04-19T20:20:54.814Z,22.10
2023-04-19T20:23:27.247Z,20.10
2023-04-19T20:25:59.932Z,26.70
2023-04-19T20:28:32.201Z,21.90
2023-04-19T20:31:04.517Z,23.30
2023-04-19T20:33:36.897Z,35.80
2023-04-19T20:36:09.632Z,28.20
2023-04-19T20:38:42.039Z,25.60
2023-04-19T20:41:14.470Z,26.60
2023-04-19T20:43:46.748Z,22.80
2023-04-19T20:46:19.238Z,21.40
2023-04-19T20:48:51.706Z,20.60
2023-04-19T20:51:24.131Z,21.80
2023-04-19T20:53:56.719Z,21.70
2023-04-19T20:56:29.016Z,25.50
2023-04-19T20:59:01.287Z,22.80
2023-04-19T21:01:34.073Z,23.90
2023-04-19T21:04:08.598Z,24.60
2023-04-19T21:06:41.420Z,21.30
2023-04-19T21:09:14.416Z,25.00
2023-04-19T21:11:46.865Z,23.90
2023-04-19T21:14:19.534Z,23.20
2023-04-19T21:16:51.911Z,21.60
2023-04-19T21:19:24.151Z,23.90
2023-04-19T21:21:56.585Z,19.90
2023-04-19T21:24:29.277Z,22.20
2023-04-19T21:27:01.624Z,23.50
2023-04-19T21:29:34.249Z,24.70
2023-04-19T21:32:06.825Z,22.20
2023-04-19T21:34:39.346Z,24.50
2023-04-19T21:37:11.643Z,27.30
2023-04-19T21:39:43.912Z,23.40
2023-04-19T21:42:16.408Z,24.60
2023-04-19T21:44:48.770Z,27.90
2023-04-19T21:47:21.412Z,23.40
2023-04-19T21:49:54.518Z,26.80
2023-04-19T21:52:26.980Z,23.50
2023-04-19T21:54:59.276Z,22.90
2023-04-19T21:57:31.648Z,28.20
2023-04-19T22:00:04.849Z,26.90
2023-04-19T22:02:37.297Z,21.40
2023-04-19T22:05:10.839Z,23.50
2023-04-19T22:07:43.436Z,24.80
2023-04-19T22:10:16.703Z,26.30
2023-04-19T22:12:57.885Z,22.70
2023-04-19T22:15:32.124Z,27.80
2023-04-19T22:18:05.448Z,24.50
2023-04-19T22:20:38.590Z,22.50
2023-04-19T22:23:11.026Z,27.00
2023-04-19T22:25:43.419Z,23.30
2023-04-19T22:28:15.937Z,26.10
2023-04-19T22:30:48.317Z,24.80
2023-04-19T22:33:22.118Z,24.90
2023-04-19T22:35:54.490Z,25.70
2023-04-19T22:38:26.894Z,27.30
2023-04-19T22:40:59.323Z,24.20
2023-04-19T22:43:31.665Z,23.30
2023-04-19T22:46:04.130Z,27.10
2023-04-19T22:48:36.616Z,26.80
2023-04-19T22:51:09.554Z,26.40
2023-04-19T22:53:41.940Z,25.20
2023-04-19T22:56:14.375Z,18.00
2023-04-19T22:58:46.605Z,18.90
2023-04-19T23:01:18.849Z,22.20
2023-04-19T23:03:51.220Z,19.10
2023-04-19T23:06:23.610Z,29.50
2023-04-19T23:08:56.371Z,19.80
2023-04-19T23:11:30.007Z,19.40
2023-04-19T23:14:02.438Z,23.60
2023-04-19T23:16:34.739Z,19.40
2023-04-19T23:19:07.746Z,17.60
2023-04-19T23:21:40.144Z,18.40
2023-04-19T23:24:12.645Z,21.60
2023-04-19T23:26:45.053Z,18.30
2023-04-19T23:29:17.606Z,21.00
2023-04-19T23:31:50.233Z,16.70
2023-04-19T23:34:22.785Z,17.40
2023-04-19T23:36:55.060Z,17.10
2023-04-19T23:39:27.436Z,18.50
2023-04-19T23:41:59.816Z,19.40
2023-04-19T23:44:32.190Z,18.20
2023-04-19T23:47:04.489Z,18.60
2023-04-19T23:49:36.989Z,20.30
2023-04-19T23:52:09.433Z,19.90
2023-04-19T23:54:42.087Z,20.10
2023-04-19T23:57:14.340Z,19.10
2023-04-19T23:59:46.646Z,18.60
